sensor_id;sensor_type;location;lat;lon;timestamp;P1;durP1;ratioP1;P2;durP2;ratioP2
50781;SDS011;36749;37.428;-121.972;2024-03-17T00:02:23;7.70;;;1.60;;
50781;SDS011;36749;37.428;-121.972;2024-03-17T00:04:49;6.05;;;1.60;;
50781;SDS011;36749;37.428;-121.972;2024-03-17T00:07:15;8.00;;;2.15;;
50781;SDS011;36749;37.428;-121.972;2024-03-17T00:09:41;9.88;;;1.75;;
50781;SDS011;36749;37.428;-121.972;2024-03-17T00:12:08;8.95;;;2.03;;
50781;SDS011;36749;37.428;-121.972;2024-03-17T00:14:34;7.22;;;1.50;;
50781;SDS011;36749;37.428;-121.972;2024-03-17T00:17:01;10.30;;;1.52;;
50781;SDS011;36749;37.428;-121.972;2024-03-17T00:19:28;8.07;;;1.75;;
50781;SDS011;36749;37.428;-121.972;2024-03-17T00:21:54;22.85;;;3.30;;
50781;SDS011;36749;37.428;-121.972;2024-03-17T00:24:20;13.20;;;1.98;;
50781;SDS011;36749;37.428;-121.972;2024-03-17T00:26:47;8.23;;;1.98;;
50781;SDS011;36749;37.428;-121.972;2024-03-17T00:29:17;7.03;;;1.70;;
50781;SDS011;36749;37.428;-121.972;2024-03-17T00:31:43;7.47;;;2.17;;
50781;SDS011;36749;37.428;-121.972;2024-03-17T00:34:09;9.65;;;2.72;;
50781;SDS011;36749;37.428;-121.972;2024-03-17T00:36:35;7.38;;;1.95;;
50781;SDS011;36749;37.428;-121.972;2024-03-17T00:39:01;9.35;;;1.88;;
50781;SDS011;36749;37.428;-121.972;2024-03-17T00:41:28;17.33;;;2.53;;
50781;SDS011;36749;37.428;-121.972;2024-03-17T00:43:54;10.18;;;1.90;;
50781;SDS011;36749;37.428;-121.972;2024-03-17T00:46:21;7.15;;;2.63;;
50781;SDS011;36749;37.428;-121.972;2024-03-17T00:48:48;9.98;;;2.15;;
50781;SDS011;36749;37.428;-121.972;2024-03-17T00:51:14;8.32;;;2.22;;
50781;SDS011;36749;37.428;-121.972;2024-03-17T00:53:44;11.45;;;1.88;;
50781;SDS011;36749;37.428;-121.972;2024-03-17T00:56:10;14.85;;;2.50;;
50781;SDS011;36749;37.428;-121.972;2024-03-17T00:58:36;11.20;;;2.42;;
50781;SDS011;36749;37.428;-121.972;2024-03-17T01:01:04;9.15;;;2.60;;
50781;SDS011;36749;37.428;-121.972;2024-03-17T01:03:30;11.27;;;2.40;;
50781;SDS011;36749;37.428;-121.972;2024-03-17T01:05:56;10.18;;;2.00;;
50781;SDS011;36749;37.428;-121.972;2024-03-17T01:08:22;18.38;;;2.75;;
50781;SDS011;36749;37.428;-121.972;2024-03-17T01:10:48;11.68;;;2.95;;
50781;SDS011;36749;37.428;-121.972;2024-03-17T01:13:17;10.20;;;2.30;;
50781;SDS011;36749;37.428;-121.972;2024-03-17T01:15:44;12.15;;;2.80;;
50781;SDS011;36749;37.428;-121.972;2024-03-17T01:18:10;13.35;;;2.80;;
50781;SDS011;36749;37.428;-121.972;2024-03-17T01:20:37;8.65;;;2.58;;
50781;SDS011;36749;37.428;-121.972;2024-03-17T01:23:04;10.85;;;2.45;;
50781;SDS011;36749;37.428;-121.972;2024-03-17T01:25:31;17.58;;;2.65;;
50781;SDS011;36749;37.428;-121.972;2024-03-17T01:28:01;19.70;;;3.75;;
50781;SDS011;36749;37.428;-121.972;2024-03-17T01:30:27;10.50;;;3.28;;
50781;SDS011;36749;37.428;-121.972;2024-03-17T01:32:53;11.43;;;2.45;;
50781;SDS011;36749;37.428;-121.972;2024-03-17T01:35:20;8.88;;;2.22;;
50781;SDS011;36749;37.428;-121.972;2024-03-17T01:37:47;12.20;;;2.83;;
50781;SDS011;36749;37.428;-121.972;2024-03-17T01:40:13;10.93;;;3.00;;
50781;SDS011;36749;37.428;-121.972;2024-03-17T01:42:39;11.88;;;3.20;;
50781;SDS011;36749;37.428;-121.972;2024-03-17T01:45:48;11.93;;;2.05;;
50781;SDS011;36749;37.428;-121.972;2024-03-17T01:47:57;7.00;;;2.50;;
50781;SDS011;36749;37.428;-121.972;2024-03-17T01:50:30;7.38;;;2.42;;
50781;SDS011;36749;37.428;-121.972;2024-03-17T01:52:58;6.13;;;2.15;;
50781;SDS011;36749;37.428;-121.972;2024-03-17T01:55:27;9.10;;;2.53;;
50781;SDS011;36749;37.428;-121.972;2024-03-17T01:57:54;8.20;;;2.65;;
50781;SDS011;36749;37.428;-121.972;2024-03-17T02:00:20;9.02;;;2.03;;
50781;SDS011;36749;37.428;-121.972;2024-03-17T02:02:48;12.30;;;2.33;;
50781;SDS011;36749;37.428;-121.972;2024-03-17T02:05:14;10.00;;;2.25;;
50781;SDS011;36749;37.428;-121.972;2024-03-17T02:07:41;11.60;;;3.00;;
50781;SDS011;36749;37.428;-121.972;2024-03-17T02:10:07;9.43;;;2.67;;
50781;SDS011;36749;37.428;-121.972;2024-03-17T02:12:34;12.95;;;3.10;;
50781;SDS011;36749;37.428;-121.972;2024-03-17T02:15:01;13.98;;;3.00;;
50781;SDS011;36749;37.428;-121.972;2024-03-17T02:17:31;16.17;;;3.33;;
50781;SDS011;36749;37.428;-121.972;2024-03-17T02:19:58;12.70;;;2.50;;
50781;SDS011;36749;37.428;-121.972;2024-03-17T02:22:27;11.25;;;2.53;;
50781;SDS011;36749;37.428;-121.972;2024-03-17T02:24:54;11.80;;;3.15;;
50781;SDS011;36749;37.428;-121.972;2024-03-17T02:27:20;13.30;;;2.65;;
50781;SDS011;36749;37.428;-121.972;2024-03-17T02:29:47;19.75;;;3.22;;
50781;SDS011;36749;37.428;-121.972;2024-03-17T02:32:13;12.98;;;2.60;;
50781;SDS011;36749;37.428;-121.972;2024-03-17T02:34:41;13.52;;;3.17;;
50781;SDS011;36749;37.428;-121.972;2024-03-17T02:37:09;11.13;;;2.75;;
50781;SDS011;36749;37.428;-121.972;2024-03-17T02:39:35;13.48;;;3.63;;
50781;SDS011;36749;37.428;-121.972;2024-03-17T02:42:02;12.88;;;3.42;;
50781;SDS011;36749;37.428;-121.972;2024-03-17T02:44:30;12.93;;;2.85;;
50781;SDS011;36749;37.428;-121.972;2024-03-17T02:46:59;13.27;;;3.10;;
50781;SDS011;36749;37.428;-121.972;2024-03-17T02:49:26;15.68;;;3.78;;
50781;SDS011;36749;37.428;-121.972;2024-03-17T02:51:55;13.68;;;2.85;;
50781;SDS011;36749;37.428;-121.972;2024-03-17T02:54:22;15.93;;;3.28;;
50781;SDS011;36749;37.428;-121.972;2024-03-17T02:56:48;14.32;;;3.88;;
50781;SDS011;36749;37.428;-121.972;2024-03-17T02:59:15;16.17;;;3.20;;
50781;SDS011;36749;37.428;-121.972;2024-03-17T03:01:41;14.13;;;3.10;;
50781;SDS011;36749;37.428;-121.972;2024-03-17T03:04:07;14.98;;;3.58;;
50781;SDS011;36749;37.428;-121.972;2024-03-17T03:06:34;18.92;;;3.58;;
50781;SDS011;36749;37.428;-121.972;2024-03-17T03:09:00;16.35;;;3.45;;
50781;SDS011;36749;37.428;-121.972;2024-03-17T03:11:27;16.38;;;4.15;;
50781;SDS011;36749;37.428;-121.972;2024-03-17T03:13:53;21.95;;;4.47;;
50781;SDS011;36749;37.428;-121.972;2024-03-17T03:16:19;13.32;;;2.55;;
50781;SDS011;36749;37.428;-121.972;2024-03-17T03:18:46;17.13;;;4.07;;
50781;SDS011;36749;37.428;-121.972;2024-03-17T03:21:12;16.73;;;3.60;;
50781;SDS011;36749;37.428;-121.972;2024-03-17T03:23:38;20.10;;;3.92;;
50781;SDS011;36749;37.428;-121.972;2024-03-17T03:26:05;14.25;;;2.88;;
50781;SDS011;36749;37.428;-121.972;2024-03-17T03:28:35;15.23;;;3.58;;
50781;SDS011;36749;37.428;-121.972;2024-03-17T03:31:02;20.55;;;3.55;;
50781;SDS011;36749;37.428;-121.972;2024-03-17T03:33:28;17.40;;;3.42;;
50781;SDS011;36749;37.428;-121.972;2024-03-17T03:35:54;15.30;;;3.47;;
50781;SDS011;36749;37.428;-121.972;2024-03-17T03:38:21;16.30;;;3.53;;
50781;SDS011;36749;37.428;-121.972;2024-03-17T03:40:47;17.05;;;3.25;;
50781;SDS011;36749;37.428;-121.972;2024-03-17T03:43:14;16.65;;;3.72;;
50781;SDS011;36749;37.428;-121.972;2024-03-17T03:45:40;13.98;;;2.85;;
50781;SDS011;36749;37.428;-121.972;2024-03-17T03:48:07;18.90;;;3.63;;
50781;SDS011;36749;37.428;-121.972;2024-03-17T03:50:34;17.42;;;3.53;;
50781;SDS011;36749;37.428;-121.972;2024-03-17T03:53:01;15.07;;;3.58;;
50781;SDS011;36749;37.428;-121.972;2024-03-17T03:55:27;13.88;;;2.75;;
50781;SDS011;36749;37.428;-121.972;2024-03-17T03:57:54;13.43;;;3.00;;
50781;SDS011;36749;37.428;-121.972;2024-03-17T04:00:21;14.35;;;3.60;;
50781;SDS011;36749;37.428;-121.972;2024-03-17T04:02:51;13.82;;;2.78;;
50781;SDS011;36749;37.428;-121.972;2024-03-17T04:05:18;14.00;;;3.22;;
50781;SDS011;36749;37.428;-121.972;2024-03-17T04:07:45;12.20;;;3.35;;
50781;SDS011;36749;37.428;-121.972;2024-03-17T04:10:12;14.38;;;2.67;;
50781;SDS011;36749;37.428;-121.972;2024-03-17T04:12:39;14.35;;;3.80;;
50781;SDS011;36749;37.428;-121.972;2024-03-17T04:15:06;12.00;;;2.97;;
50781;SDS011;36749;37.428;-121.972;2024-03-17T04:17:32;17.67;;;3.55;;
50781;SDS011;36749;37.428;-121.972;2024-03-17T04:19:59;17.10;;;3.10;;
50781;SDS011;36749;37.428;-121.972;2024-03-17T04:22:25;15.80;;;3.88;;
50781;SDS011;36749;37.428;-121.972;2024-03-17T04:24:52;12.93;;;3.20;;
50781;SDS011;36749;37.428;-121.972;2024-03-17T04:27:19;17.73;;;2.92;;
50781;SDS011;36749;37.428;-121.972;2024-03-17T04:29:46;11.57;;;3.10;;
50781;SDS011;36749;37.428;-121.972;2024-03-17T04:32:15;20.55;;;3.35;;
50781;SDS011;36749;37.428;-121.972;2024-03-17T04:34:42;15.05;;;4.40;;
50781;SDS011;36749;37.428;-121.972;2024-03-17T04:37:12;12.45;;;3.78;;
50781;SDS011;36749;37.428;-121.972;2024-03-17T04:39:39;11.15;;;3.17;;
50781;SDS011;36749;37.428;-121.972;2024-03-17T04:42:08;13.15;;;3.17;;
50781;SDS011;36749;37.428;-121.972;2024-03-17T04:44:35;20.83;;;3.67;;
50781;SDS011;36749;37.428;-121.972;2024-03-17T04:47:01;13.65;;;4.00;;
50781;SDS011;36749;37.428;-121.972;2024-03-17T04:49:38;13.88;;;3.35;;
50781;SDS011;36749;37.428;-121.972;2024-03-17T04:52:05;12.50;;;2.90;;
50781;SDS011;36749;37.428;-121.972;2024-03-17T04:54:32;13.50;;;3.67;;
50781;SDS011;36749;37.428;-121.972;2024-03-17T04:56:59;14.38;;;3.67;;
50781;SDS011;36749;37.428;-121.972;2024-03-17T04:59:25;11.88;;;3.13;;
50781;SDS011;36749;37.428;-121.972;2024-03-17T05:01:52;15.38;;;3.60;;
50781;SDS011;36749;37.428;-121.972;2024-03-17T05:04:19;15.00;;;3.58;;
50781;SDS011;36749;37.428;-121.972;2024-03-17T05:06:45;13.95;;;3.47;;
50781;SDS011;36749;37.428;-121.972;2024-03-17T05:09:12;20.67;;;3.80;;
50781;SDS011;36749;37.428;-121.972;2024-03-17T05:11:39;15.88;;;3.42;;
50781;SDS011;36749;37.428;-121.972;2024-03-17T05:14:05;10.25;;;3.28;;
50781;SDS011;36749;37.428;-121.972;2024-03-17T05:16:32;18.75;;;3.42;;
50781;SDS011;36749;37.428;-121.972;2024-03-17T05:18:58;16.45;;;3.63;;
50781;SDS011;36749;37.428;-121.972;2024-03-17T05:21:24;17.35;;;3.30;;
50781;SDS011;36749;37.428;-121.972;2024-03-17T05:23:51;14.30;;;3.28;;
50781;SDS011;36749;37.428;-121.972;2024-03-17T05:26:17;15.88;;;3.85;;
50781;SDS011;36749;37.428;-121.972;2024-03-17T05:28:44;20.63;;;3.83;;
50781;SDS011;36749;37.428;-121.972;2024-03-17T05:31:10;14.45;;;2.90;;
50781;SDS011;36749;37.428;-121.972;2024-03-17T05:33:40;15.05;;;3.75;;
50781;SDS011;36749;37.428;-121.972;2024-03-17T05:36:06;12.82;;;3.30;;
50781;SDS011;36749;37.428;-121.972;2024-03-17T05:38:33;16.88;;;3.45;;
50781;SDS011;36749;37.428;-121.972;2024-03-17T05:41:00;20.08;;;3.70;;
50781;SDS011;36749;37.428;-121.972;2024-03-17T05:43:31;14.55;;;3.70;;
50781;SDS011;36749;37.428;-121.972;2024-03-17T05:46:00;15.05;;;2.95;;
50781;SDS011;36749;37.428;-121.972;2024-03-17T05:48:27;14.88;;;3.80;;
50781;SDS011;36749;37.428;-121.972;2024-03-17T05:50:53;26.17;;;4.53;;
50781;SDS011;36749;37.428;-121.972;2024-03-17T05:53:22;16.95;;;3.13;;
50781;SDS011;36749;37.428;-121.972;2024-03-17T05:55:52;22.65;;;3.60;;
50781;SDS011;36749;37.428;-121.972;2024-03-17T05:58:18;18.63;;;3.88;;
50781;SDS011;36749;37.428;-121.972;2024-03-17T06:00:44;17.50;;;3.20;;
50781;SDS011;36749;37.428;-121.972;2024-03-17T06:03:10;19.35;;;3.10;;
50781;SDS011;36749;37.428;-121.972;2024-03-17T06:05:37;17.17;;;3.53;;
50781;SDS011;36749;37.428;-121.972;2024-03-17T06:08:06;14.32;;;3.28;;
50781;SDS011;36749;37.428;-121.972;2024-03-17T06:10:34;19.77;;;3.83;;
50781;SDS011;36749;37.428;-121.972;2024-03-17T06:13:04;14.52;;;3.67;;
50781;SDS011;36749;37.428;-121.972;2024-03-17T06:15:30;13.20;;;2.97;;
50781;SDS011;36749;37.428;-121.972;2024-03-17T06:17:56;14.80;;;3.20;;
50781;SDS011;36749;37.428;-121.972;2024-03-17T06:20:24;10.23;;;3.30;;
50781;SDS011;36749;37.428;-121.972;2024-03-17T06:22:54;13.98;;;3.30;;
50781;SDS011;36749;37.428;-121.972;2024-03-17T06:25:20;20.85;;;4.25;;
50781;SDS011;36749;37.428;-121.972;2024-03-17T06:27:52;15.48;;;3.63;;
50781;SDS011;36749;37.428;-121.972;2024-03-17T06:30:18;16.58;;;4.50;;
50781;SDS011;36749;37.428;-121.972;2024-03-17T06:32:45;15.65;;;3.60;;
50781;SDS011;36749;37.428;-121.972;2024-03-17T06:35:12;12.10;;;2.83;;
50781;SDS011;36749;37.428;-121.972;2024-03-17T06:37:43;11.00;;;3.22;;
50781;SDS011;36749;37.428;-121.972;2024-03-17T06:40:14;19.00;;;3.58;;
50781;SDS011;36749;37.428;-121.972;2024-03-17T06:42:40;18.42;;;4.28;;
50781;SDS011;36749;37.428;-121.972;2024-03-17T06:45:07;11.88;;;3.63;;
50781;SDS011;36749;37.428;-121.972;2024-03-17T06:47:34;12.38;;;3.70;;
50781;SDS011;36749;37.428;-121.972;2024-03-17T06:50:01;13.05;;;3.10;;
50781;SDS011;36749;37.428;-121.972;2024-03-17T06:52:28;17.67;;;4.97;;
50781;SDS011;36749;37.428;-121.972;2024-03-17T06:54:55;11.05;;;3.75;;
50781;SDS011;36749;37.428;-121.972;2024-03-17T06:57:23;14.43;;;3.63;;
50781;SDS011;36749;37.428;-121.972;2024-03-17T06:59:49;17.33;;;4.88;;
50781;SDS011;36749;37.428;-121.972;2024-03-17T07:02:16;14.75;;;3.50;;
50781;SDS011;36749;37.428;-121.972;2024-03-17T07:04:48;17.92;;;4.93;;
50781;SDS011;36749;37.428;-121.972;2024-03-17T07:07:14;14.20;;;4.07;;
50781;SDS011;36749;37.428;-121.972;2024-03-17T07:09:40;11.38;;;4.30;;
50781;SDS011;36749;37.428;-121.972;2024-03-17T07:12:07;12.77;;;3.00;;
50781;SDS011;36749;37.428;-121.972;2024-03-17T07:14:34;13.45;;;3.70;;
50781;SDS011;36749;37.428;-121.972;2024-03-17T07:17:01;11.50;;;3.17;;
50781;SDS011;36749;37.428;-121.972;2024-03-17T07:19:27;12.40;;;3.63;;
50781;SDS011;36749;37.428;-121.972;2024-03-17T07:21:54;17.55;;;4.53;;
50781;SDS011;36749;37.428;-121.972;2024-03-17T07:24:20;13.13;;;3.20;;
50781;SDS011;36749;37.428;-121.972;2024-03-17T07:26:50;10.30;;;3.08;;
50781;SDS011;36749;37.428;-121.972;2024-03-17T07:29:16;11.27;;;3.40;;
50781;SDS011;36749;37.428;-121.972;2024-03-17T07:31:44;12.52;;;3.58;;
50781;SDS011;36749;37.428;-121.972;2024-03-17T07:34:10;10.98;;;3.10;;
50781;SDS011;36749;37.428;-121.972;2024-03-17T07:36:36;11.57;;;3.42;;
50781;SDS011;36749;37.428;-121.972;2024-03-17T07:39:03;12.27;;;3.20;;
50781;SDS011;36749;37.428;-121.972;2024-03-17T07:41:29;9.07;;;3.25;;
50781;SDS011;36749;37.428;-121.972;2024-03-17T07:43:55;13.23;;;3.70;;
50781;SDS011;36749;37.428;-121.972;2024-03-17T07:46:22;13.68;;;3.55;;
50781;SDS011;36749;37.428;-121.972;2024-03-17T07:48:48;14.32;;;3.63;;
50781;SDS011;36749;37.428;-121.972;2024-03-17T07:51:15;12.88;;;3.90;;
50781;SDS011;36749;37.428;-121.972;2024-03-17T07:53:43;13.70;;;3.40;;
50781;SDS011;36749;37.428;-121.972;2024-03-17T07:56:18;14.75;;;3.60;;
50781;SDS011;36749;37.428;-121.972;2024-03-17T07:58:45;15.82;;;4.07;;
50781;SDS011;36749;37.428;-121.972;2024-03-17T08:01:14;10.57;;;3.20;;
50781;SDS011;36749;37.428;-121.972;2024-03-17T08:03:44;16.27;;;4.10;;
50781;SDS011;36749;37.428;-121.972;2024-03-17T08:06:12;15.80;;;3.78;;
50781;SDS011;36749;37.428;-121.972;2024-03-17T08:08:38;15.43;;;3.95;;
50781;SDS011;36749;37.428;-121.972;2024-03-17T08:11:05;18.90;;;4.15;;
50781;SDS011;36749;37.428;-121.972;2024-03-17T08:13:31;11.80;;;4.35;;
50781;SDS011;36749;37.428;-121.972;2024-03-17T08:16:04;12.43;;;3.95;;
50781;SDS011;36749;37.428;-121.972;2024-03-17T08:18:31;11.30;;;3.00;;
50781;SDS011;36749;37.428;-121.972;2024-03-17T08:20:59;11.23;;;3.30;;
50781;SDS011;36749;37.428;-121.972;2024-03-17T08:23:30;10.32;;;3.20;;
50781;SDS011;36749;37.428;-121.972;2024-03-17T08:25:57;15.98;;;3.50;;
50781;SDS011;36749;37.428;-121.972;2024-03-17T08:28:24;15.18;;;3.33;;
50781;SDS011;36749;37.428;-121.972;2024-03-17T08:30:52;13.82;;;4.13;;
50781;SDS011;36749;37.428;-121.972;2024-03-17T08:33:18;16.77;;;4.15;;
50781;SDS011;36749;37.428;-121.972;2024-03-17T08:35:58;11.73;;;4.20;;
50781;SDS011;36749;37.428;-121.972;2024-03-17T08:38:25;13.05;;;3.85;;
50781;SDS011;36749;37.428;-121.972;2024-03-17T08:40:56;14.40;;;4.00;;
50781;SDS011;36749;37.428;-121.972;2024-03-17T08:43:23;11.95;;;3.70;;
50781;SDS011;36749;37.428;-121.972;2024-03-17T08:45:59;13.63;;;4.07;;
50781;SDS011;36749;37.428;-121.972;2024-03-17T08:48:29;11.27;;;3.10;;
50781;SDS011;36749;37.428;-121.972;2024-03-17T08:50:59;14.35;;;4.30;;
50781;SDS011;36749;37.428;-121.972;2024-03-17T08:53:27;11.30;;;3.28;;
50781;SDS011;36749;37.428;-121.972;2024-03-17T08:55:54;16.70;;;4.45;;
50781;SDS011;36749;37.428;-121.972;2024-03-17T08:58:20;13.52;;;4.13;;
50781;SDS011;36749;37.428;-121.972;2024-03-17T09:00:47;10.98;;;3.50;;
50781;SDS011;36749;37.428;-121.972;2024-03-17T09:03:14;13.82;;;4.28;;
50781;SDS011;36749;37.428;-121.972;2024-03-17T09:05:40;10.38;;;3.47;;
50781;SDS011;36749;37.428;-121.972;2024-03-17T09:08:18;10.15;;;3.30;;
50781;SDS011;36749;37.428;-121.972;2024-03-17T09:10:49;9.38;;;3.55;;
50781;SDS011;36749;37.428;-121.972;2024-03-17T09:13:18;15.25;;;3.58;;
50781;SDS011;36749;37.428;-121.972;2024-03-17T09:15:52;16.98;;;4.05;;
50781;SDS011;36749;37.428;-121.972;2024-03-17T09:18:27;16.00;;;4.20;;
50781;SDS011;36749;37.428;-121.972;2024-03-17T09:20:58;12.20;;;3.75;;
50781;SDS011;36749;37.428;-121.972;2024-03-17T09:23:28;12.98;;;3.70;;
50781;SDS011;36749;37.428;-121.972;2024-03-17T09:25:58;15.40;;;3.90;;
50781;SDS011;36749;37.428;-121.972;2024-03-17T09:28:26;12.05;;;3.13;;
50781;SDS011;36749;37.428;-121.972;2024-03-17T09:30:53;17.02;;;3.92;;
50781;SDS011;36749;37.428;-121.972;2024-03-17T09:33:20;14.25;;;4.13;;
50781;SDS011;36749;37.428;-121.972;2024-03-17T09:35:57;13.02;;;4.45;;
50781;SDS011;36749;37.428;-121.972;2024-03-17T09:38:25;9.75;;;3.47;;
50781;SDS011;36749;37.428;-121.972;2024-03-17T09:40:52;14.20;;;4.20;;
50781;SDS011;36749;37.428;-121.972;2024-03-17T09:43:22;8.27;;;3.58;;
50781;SDS011;36749;37.428;-121.972;2024-03-17T09:45:50;14.07;;;3.30;;
50781;SDS011;36749;37.428;-121.972;2024-03-17T09:48:20;12.27;;;3.42;;
50781;SDS011;36749;37.428;-121.972;2024-03-17T09:50:49;14.02;;;3.85;;
50781;SDS011;36749;37.428;-121.972;2024-03-17T09:53:22;11.98;;;4.18;;
50781;SDS011;36749;37.428;-121.972;2024-03-17T09:56:20;12.05;;;3.65;;
50781;SDS011;36749;37.428;-121.972;2024-03-17T09:58:46;14.32;;;3.70;;
50781;SDS011;36749;37.428;-121.972;2024-03-17T10:01:13;8.98;;;3.38;;
50781;SDS011;36749;37.428;-121.972;2024-03-17T10:03:40;8.30;;;3.38;;
50781;SDS011;36749;37.428;-121.972;2024-03-17T10:06:15;12.15;;;3.90;;
50781;SDS011;36749;37.428;-121.972;2024-03-17T10:08:42;10.68;;;3.53;;
50781;SDS011;36749;37.428;-121.972;2024-03-17T10:11:16;11.77;;;4.18;;
50781;SDS011;36749;37.428;-121.972;2024-03-17T10:13:44;8.75;;;3.20;;
50781;SDS011;36749;37.428;-121.972;2024-03-17T10:16:20;12.98;;;4.68;;
50781;SDS011;36749;37.428;-121.972;2024-03-17T10:18:54;9.07;;;3.40;;
50781;SDS011;36749;37.428;-121.972;2024-03-17T10:21:36;12.52;;;5.07;;
50781;SDS011;36749;37.428;-121.972;2024-03-17T10:24:06;11.07;;;4.47;;
50781;SDS011;36749;37.428;-121.972;2024-03-17T10:26:37;11.93;;;4.47;;
50781;SDS011;36749;37.428;-121.972;2024-03-17T10:31:54;11.73;;;4.57;;
50781;SDS011;36749;37.428;-121.972;2024-03-17T10:34:22;14.88;;;4.47;;
50781;SDS011;36749;37.428;-121.972;2024-03-17T10:37:08;11.70;;;5.32;;
50781;SDS011;36749;37.428;-121.972;2024-03-17T10:39:43;15.63;;;4.55;;
50781;SDS011;36749;37.428;-121.972;2024-03-17T10:42:10;15.93;;;4.45;;
50781;SDS011;36749;37.428;-121.972;2024-03-17T10:44:38;13.13;;;4.28;;
50781;SDS011;36749;37.428;-121.972;2024-03-17T10:47:05;8.40;;;4.07;;
50781;SDS011;36749;37.428;-121.972;2024-03-17T10:49:37;11.57;;;4.80;;
50781;SDS011;36749;37.428;-121.972;2024-03-17T10:52:04;16.73;;;4.40;;
50781;SDS011;36749;37.428;-121.972;2024-03-17T10:54:39;9.52;;;4.05;;
50781;SDS011;36749;37.428;-121.972;2024-03-17T11:00:00;11.50;;;3.90;;
50781;SDS011;36749;37.428;-121.972;2024-03-17T11:02:31;12.07;;;4.50;;
50781;SDS011;36749;37.428;-121.972;2024-03-17T11:05:05;13.13;;;4.03;;
50781;SDS011;36749;37.428;-121.972;2024-03-17T11:08:01;11.70;;;4.50;;
50781;SDS011;36749;37.428;-121.972;2024-03-17T11:10:34;12.15;;;4.28;;
50781;SDS011;36749;37.428;-121.972;2024-03-17T11:13:02;11.77;;;4.25;;
50781;SDS011;36749;37.428;-121.972;2024-03-17T11:20:36;14.10;;;5.10;;
50781;SDS011;36749;37.428;-121.972;2024-03-17T11:23:06;8.23;;;3.78;;
50781;SDS011;36749;37.428;-121.972;2024-03-17T11:28:03;11.55;;;4.07;;
50781;SDS011;36749;37.428;-121.972;2024-03-17T11:41:41;13.50;;;4.00;;
50781;SDS011;36749;37.428;-121.972;2024-03-17T11:49:35;11.25;;;3.95;;
50781;SDS011;36749;37.428;-121.972;2024-03-17T11:52:08;13.10;;;4.23;;
50781;SDS011;36749;37.428;-121.972;2024-03-17T11:54:37;12.27;;;3.95;;
50781;SDS011;36749;37.428;-121.972;2024-03-17T11:57:05;11.00;;;4.10;;
50781;SDS011;36749;37.428;-121.972;2024-03-17T11:59:32;10.85;;;3.55;;
50781;SDS011;36749;37.428;-121.972;2024-03-17T12:01:59;10.13;;;3.58;;
50781;SDS011;36749;37.428;-121.972;2024-03-17T12:04:27;8.20;;;3.78;;
50781;SDS011;36749;37.428;-121.972;2024-03-17T12:06:56;14.77;;;4.05;;
50781;SDS011;36749;37.428;-121.972;2024-03-17T12:09:30;14.18;;;4.10;;
50781;SDS011;36749;37.428;-121.972;2024-03-17T12:14:26;11.45;;;3.38;;
50781;SDS011;36749;37.428;-121.972;2024-03-17T12:16:53;10.52;;;3.92;;
50781;SDS011;36749;37.428;-121.972;2024-03-17T12:19:22;15.50;;;3.67;;
50781;SDS011;36749;37.428;-121.972;2024-03-17T12:21:49;12.05;;;3.67;;
50781;SDS011;36749;37.428;-121.972;2024-03-17T12:24:18;10.13;;;3.35;;
50781;SDS011;36749;37.428;-121.972;2024-03-17T12:26:46;9.93;;;3.22;;
50781;SDS011;36749;37.428;-121.972;2024-03-17T12:29:57;12.95;;;3.55;;
50781;SDS011;36749;37.428;-121.972;2024-03-17T12:34:41;11.43;;;3.88;;
50781;SDS011;36749;37.428;-121.972;2024-03-17T12:37:29;10.10;;;3.80;;
50781;SDS011;36749;37.428;-121.972;2024-03-17T12:40:02;11.63;;;3.33;;
50781;SDS011;36749;37.428;-121.972;2024-03-17T12:42:29;16.23;;;4.10;;
50781;SDS011;36749;37.428;-121.972;2024-03-17T12:45:00;10.38;;;3.17;;
50781;SDS011;36749;37.428;-121.972;2024-03-17T12:47:27;14.88;;;3.47;;
50781;SDS011;36749;37.428;-121.972;2024-03-17T12:49:56;12.60;;;3.95;;
50781;SDS011;36749;37.428;-121.972;2024-03-17T12:52:24;9.27;;;3.28;;
50781;SDS011;36749;37.428;-121.972;2024-03-17T12:55:03;8.82;;;3.10;;
50781;SDS011;36749;37.428;-121.972;2024-03-17T12:57:50;12.10;;;3.25;;
50781;SDS011;36749;37.428;-121.972;2024-03-17T13:00:36;11.35;;;3.40;;
50781;SDS011;36749;37.428;-121.972;2024-03-17T13:03:03;10.13;;;3.28;;
50781;SDS011;36749;37.428;-121.972;2024-03-17T13:05:31;8.70;;;4.20;;
50781;SDS011;36749;37.428;-121.972;2024-03-17T13:08:01;9.40;;;3.60;;
50781;SDS011;36749;37.428;-121.972;2024-03-17T13:10:28;13.32;;;3.55;;
50781;SDS011;36749;37.428;-121.972;2024-03-17T13:12:59;13.05;;;3.80;;
50781;SDS011;36749;37.428;-121.972;2024-03-17T13:15:29;11.52;;;3.80;;
50781;SDS011;36749;37.428;-121.972;2024-03-17T13:17:56;16.08;;;4.32;;
50781;SDS011;36749;37.428;-121.972;2024-03-17T13:20:23;10.57;;;3.85;;
50781;SDS011;36749;37.428;-121.972;2024-03-17T13:22:50;10.52;;;3.45;;
50781;SDS011;36749;37.428;-121.972;2024-03-17T13:25:18;9.50;;;3.30;;
50781;SDS011;36749;37.428;-121.972;2024-03-17T13:27:48;8.50;;;3.17;;
50781;SDS011;36749;37.428;-121.972;2024-03-17T13:30:15;10.45;;;3.50;;
50781;SDS011;36749;37.428;-121.972;2024-03-17T13:32:42;12.02;;;4.32;;
50781;SDS011;36749;37.428;-121.972;2024-03-17T13:35:18;10.93;;;3.72;;
50781;SDS011;36749;37.428;-121.972;2024-03-17T13:37:45;9.60;;;3.53;;
50781;SDS011;36749;37.428;-121.972;2024-03-17T13:40:13;10.30;;;4.35;;
50781;SDS011;36749;37.428;-121.972;2024-03-17T13:42:45;19.23;;;4.63;;
50781;SDS011;36749;37.428;-121.972;2024-03-17T13:45:12;12.63;;;3.47;;
50781;SDS011;36749;37.428;-121.972;2024-03-17T13:47:42;13.43;;;3.88;;
50781;SDS011;36749;37.428;-121.972;2024-03-17T13:50:12;9.55;;;3.50;;
50781;SDS011;36749;37.428;-121.972;2024-03-17T13:52:41;12.98;;;4.10;;
50781;SDS011;36749;37.428;-121.972;2024-03-17T13:55:18;13.80;;;3.85;;
50781;SDS011;36749;37.428;-121.972;2024-03-17T13:57:54;9.52;;;3.85;;
50781;SDS011;36749;37.428;-121.972;2024-03-17T14:00:25;12.05;;;4.25;;
50781;SDS011;36749;37.428;-121.972;2024-03-17T14:02:52;10.98;;;3.80;;
50781;SDS011;36749;37.428;-121.972;2024-03-17T14:05:20;16.65;;;5.20;;
50781;SDS011;36749;37.428;-121.972;2024-03-17T14:07:47;11.30;;;3.88;;
50781;SDS011;36749;37.428;-121.972;2024-03-17T14:10:15;15.35;;;4.22;;
50781;SDS011;36749;37.428;-121.972;2024-03-17T14:12:42;12.40;;;4.05;;
50781;SDS011;36749;37.428;-121.972;2024-03-17T14:15:12;10.45;;;3.55;;
50781;SDS011;36749;37.428;-121.972;2024-03-17T14:17:46;9.60;;;3.95;;
50781;SDS011;36749;37.428;-121.972;2024-03-17T14:20:14;8.70;;;3.60;;
50781;SDS011;36749;37.428;-121.972;2024-03-17T14:22:43;12.75;;;4.60;;
50781;SDS011;36749;37.428;-121.972;2024-03-17T14:25:16;11.60;;;3.83;;
50781;SDS011;36749;37.428;-121.972;2024-03-17T14:27:43;13.52;;;4.72;;
50781;SDS011;36749;37.428;-121.972;2024-03-17T14:30:10;11.63;;;3.90;;
50781;SDS011;36749;37.428;-121.972;2024-03-17T14:32:41;11.70;;;5.13;;
50781;SDS011;36749;37.428;-121.972;2024-03-17T14:35:09;10.07;;;4.32;;
50781;SDS011;36749;37.428;-121.972;2024-03-17T14:37:43;13.45;;;3.70;;
50781;SDS011;36749;37.428;-121.972;2024-03-17T14:40:13;8.30;;;3.55;;
50781;SDS011;36749;37.428;-121.972;2024-03-17T14:42:45;7.95;;;3.47;;